createdAt,value
2018-09-04T00:00:03.738Z,19.51
2018-09-04T00:02:32.129Z,19.51
2018-09-04T00:05:00.470Z,19.48
2018-09-04T00:07:28.771Z,19.50
2018-09-04T00:09:57.120Z,19.49
2018-09-04T00:12:25.486Z,19.44
2018-09-04T00:14:53.784Z,19.40
2018-09-04T00:17:22.127Z,19.36
2018-09-04T00:19:50.507Z,19.33
2018-09-04T00:22:18.853Z,19.31
2018-09-04T00:24:47.196Z,19.29
2018-09-04T00:27:15.839Z,19.32
2018-09-04T00:29:44.198Z,19.27
2018-09-04T00:32:12.552Z,19.23
2018-09-04T00:34:40.932Z,19.16
2018-09-04T00:37:09.292Z,19.13
2018-09-04T00:39:37.620Z,19.06
2018-09-04T00:42:06.351Z,19.02
2018-09-04T00:44:34.679Z,18.99
2018-09-04T00:47:03.340Z,18.96
2018-09-04T00:49:31.687Z,18.94
2018-09-04T00:52:00.017Z,18.91
2018-09-04T00:54:28.674Z,18.86
2018-09-04T00:56:57.259Z,18.86
2018-09-04T00:59:25.644Z,18.87
2018-09-04T01:01:53.990Z,18.88
2018-09-04T01:04:22.618Z,18.85
2018-09-04T01:06:50.956Z,18.86
2018-09-04T01:09:21.248Z,18.78
2018-09-04T01:11:49.636Z,18.66
2018-09-04T01:14:18.038Z,18.66
2018-09-04T01:16:46.491Z,18.63
2018-09-04T01:19:15.088Z,18.66
2018-09-04T01:21:43.431Z,18.52
2018-09-04T01:24:12.236Z,18.51
2018-09-04T01:26:40.912Z,18.47
2018-09-04T01:29:09.257Z,18.39
2018-09-04T01:31:37.545Z,18.41
2018-09-04T01:34:05.961Z,18.33
2018-09-04T01:36:34.437Z,18.23
2018-09-04T01:39:02.854Z,18.16
2018-09-04T01:41:31.194Z,18.14
2018-09-04T01:43:59.666Z,18.09
2018-09-04T01:46:28.099Z,18.06
2018-09-04T01:48:56.440Z,18.04
2018-09-04T01:51:24.807Z,18.00
2018-09-04T01:53:53.186Z,17.97
2018-09-04T01:56:21.540Z,18.03
2018-09-04T01:58:49.852Z,18.01
2018-09-04T02:01:18.525Z,17.92
2018-09-04T02:03:46.937Z,17.86
2018-09-04T02:06:15.334Z,17.88
2018-09-04T02:08:43.652Z,17.92
2018-09-04T02:11:12.426Z,17.76
2018-09-04T02:13:40.795Z,17.77
2018-09-04T02:16:09.145Z,17.77
2018-09-04T02:18:37.820Z,17.77
2018-09-04T02:21:06.260Z,17.66
2018-09-04T02:23:34.643Z,17.51
2018-09-04T02:26:03.002Z,17.45
2018-09-04T02:28:31.342Z,17.40
2018-09-04T02:30:59.712Z,17.37
2018-09-04T02:33:28.031Z,17.36
2018-09-04T02:35:56.344Z,17.39
2018-09-04T02:38:24.738Z,17.36
2018-09-04T02:40:53.122Z,17.41
2018-09-04T02:43:21.433Z,17.40
2018-09-04T02:45:49.773Z,17.31
2018-09-04T02:48:18.110Z,17.25
2018-09-04T02:50:46.492Z,17.28
2018-09-04T02:53:14.780Z,17.26
2018-09-04T02:55:43.096Z,17.31
2018-09-04T02:58:11.455Z,17.27
2018-09-04T03:00:39.814Z,17.24
2018-09-04T03:03:08.121Z,17.17
2018-09-04T03:05:36.458Z,17.16
2018-09-04T03:08:04.813Z,17.12
2018-09-04T03:10:33.208Z,17.08
2018-09-04T03:13:01.554Z,17.07
2018-09-04T03:15:29.910Z,17.02
2018-09-04T03:17:58.290Z,17.03
2018-09-04T03:20:26.641Z,17.02
2018-09-04T03:22:55.007Z,16.97
2018-09-04T03:25:23.318Z,16.91
2018-09-04T03:27:51.589Z,16.93
2018-09-04T03:30:20.184Z,16.93
2018-09-04T03:32:48.557Z,16.85
2018-09-04T03:35:16.920Z,16.84
2018-09-04T03:37:45.374Z,16.80
2018-09-04T03:40:13.705Z,16.73
2018-09-04T03:42:42.092Z,16.73
2018-09-04T03:45:10.971Z,16.68
2018-09-04T03:47:39.320Z,16.66
2018-09-04T03:50:08.290Z,16.63
2018-09-04T03:52:36.841Z,16.62
2018-09-04T03:55:05.277Z,16.58
2018-09-04T03:57:33.626Z,16.55
2018-09-04T04:00:01.936Z,16.51
2018-09-04T04:02:30.299Z,16.48
2018-09-04T04:04:58.605Z,16.51
2018-09-04T04:07:26.996Z,16.49
2018-09-04T04:09:55.340Z,16.45
2018-09-04T04:12:23.772Z,16.38
2018-09-04T04:14:52.102Z,16.32
2018-09-04T04:17:20.571Z,16.37
2018-09-04T04:19:48.973Z,16.39
2018-09-04T04:22:17.349Z,16.45
2018-09-04T04:24:45.683Z,16.41
2018-09-04T04:27:14.129Z,16.33
2018-09-04T04:29:42.479Z,16.29
2018-09-04T04:32:10.844Z,16.27
2018-09-04T04:34:39.291Z,16.19
2018-09-04T04:37:07.646Z,16.12
2018-09-04T04:39:35.966Z,16.17
2018-09-04T04:42:04.384Z,16.08
2018-09-04T04:44:32.747Z,16.09
2018-09-04T04:47:01.065Z,16.09
2018-09-04T04:49:29.382Z,16.09
2018-09-04T04:51:57.730Z,16.11
2018-09-04T04:54:26.116Z,16.12
2018-09-04T04:56:54.450Z,16.15
2018-09-04T04:59:22.795Z,16.21
2018-09-04T05:01:51.194Z,16.19
2018-09-04T05:04:19.537Z,16.21
2018-09-04T05:06:48.262Z,16.20
2018-09-04T05:09:16.644Z,16.13
2018-09-04T05:11:45.057Z,16.12
2018-09-04T05:14:13.439Z,16.10
2018-09-04T05:16:41.786Z,16.10
2018-09-04T05:19:10.113Z,16.07
2018-09-04T05:21:38.538Z,16.08
2018-09-04T05:24:06.991Z,16.10
2018-09-04T05:26:35.397Z,16.15
2018-09-04T05:29:04.220Z,16.10
2018-09-04T05:31:37.055Z,16.13
2018-09-04T05:34:05.827Z,16.18
2018-09-04T05:36:34.368Z,16.12
2018-09-04T05:39:02.693Z,16.17
2018-09-04T05:41:31.337Z,16.21
2018-09-04T05:44:01.035Z,16.29
2018-09-04T05:46:42.079Z,16.31
2018-09-04T05:49:10.917Z,16.31
2018-09-04T05:51:39.496Z,16.35
2018-09-04T05:54:07.986Z,16.39
2018-09-04T05:56:36.432Z,16.46
2018-09-04T05:59:04.814Z,16.84
2018-09-04T06:01:33.217Z,17.15
2018-09-04T06:04:01.534Z,17.30
2018-09-04T06:06:29.905Z,17.11
2018-09-04T06:08:58.378Z,17.17
2018-09-04T06:11:26.724Z,17.07
2018-09-04T06:13:55.055Z,17.11
2018-09-04T06:16:23.386Z,17.04
2018-09-04T06:18:51.673Z,17.07
2018-09-04T06:21:20.195Z,17.27
2018-09-04T06:23:48.537Z,17.19
2018-09-04T06:26:16.924Z,17.31
2018-09-04T06:28:45.543Z,17.30
2018-09-04T06:31:13.916Z,17.57
2018-09-04T06:33:42.245Z,17.70
2018-09-04T06:36:10.599Z,17.82
2018-09-04T06:38:39.003Z,17.69
2018-09-04T06:41:07.407Z,17.75
2018-09-04T06:43:35.953Z,17.89
2018-09-04T06:46:04.697Z,17.90
2018-09-04T06:48:33.043Z,17.99
2018-09-04T06:51:01.349Z,18.02
2018-09-04T06:53:29.708Z,17.91
2018-09-04T06:55:58.082Z,17.80
2018-09-04T06:58:26.471Z,17.99
2018-09-04T07:00:54.840Z,18.01
2018-09-04T07:03:23.159Z,18.10
2018-09-04T07:05:51.509Z,18.29
2018-09-04T07:08:19.896Z,18.26
2018-09-04T07:10:48.442Z,18.34
2018-09-04T07:13:16.766Z,18.56
2018-09-04T07:15:45.102Z,18.52
2018-09-04T07:18:13.430Z,18.54
2018-09-04T07:20:41.945Z,18.57
2018-09-04T07:23:10.310Z,18.83
2018-09-04T07:25:38.712Z,19.16
2018-09-04T07:28:06.992Z,19.32
2018-09-04T07:30:35.583Z,19.56
2018-09-04T07:33:03.924Z,19.80
2018-09-04T07:35:32.284Z,19.59
2018-09-04T07:38:00.620Z,19.86
2018-09-04T07:40:29.291Z,20.04
2018-09-04T07:42:57.986Z,20.16
2018-09-04T07:45:26.335Z,20.27
2018-09-04T07:47:54.739Z,20.25
2018-09-04T07:50:23.296Z,20.43
2018-09-04T07:52:51.843Z,20.68
2018-09-04T07:55:20.159Z,21.39
2018-09-04T07:57:48.471Z,22.25
2018-09-04T08:00:16.794Z,22.67
2018-09-04T08:02:45.155Z,22.74
2018-09-04T08:05:13.568Z,23.92
2018-09-04T08:07:41.879Z,24.34
2018-09-04T08:10:10.265Z,24.42
2018-09-04T08:12:38.790Z,24.81
2018-09-04T08:15:07.216Z,23.80
2018-09-04T08:17:35.572Z,24.63
2018-09-04T08:20:03.948Z,24.33
2018-09-04T08:22:32.252Z,25.22
2018-09-04T08:25:00.600Z,25.59
2018-09-04T08:27:28.911Z,24.38
2018-09-04T08:29:57.480Z,23.92
2018-09-04T08:32:25.787Z,24.16
2018-09-04T08:34:54.108Z,24.27
2018-09-04T08:37:22.640Z,23.86
2018-09-04T08:39:50.976Z,23.99
2018-09-04T08:42:19.298Z,23.97
2018-09-04T08:44:49.941Z,24.04
2018-09-04T08:47:18.726Z,24.16
2018-09-04T08:49:46.954Z,23.96
2018-09-04T08:52:15.310Z,23.75
2018-09-04T08:54:43.777Z,23.91
2018-09-04T08:57:12.178Z,24.04
2018-09-04T08:59:40.598Z,23.97
2018-09-04T09:02:08.936Z,23.92
2018-09-04T09:04:37.498Z,24.00
2018-09-04T09:07:06.428Z,23.88
2018-09-04T09:09:34.773Z,24.08
2018-09-04T09:12:03.203Z,23.96
2018-09-04T09:14:31.604Z,24.12
2018-09-04T09:16:59.991Z,23.72
2018-09-04T09:19:28.443Z,23.67
2018-09-04T09:21:56.817Z,23.99
2018-09-04T09:24:25.178Z,24.11
2018-09-04T09:26:54.460Z,23.98
2018-09-04T09:29:22.879Z,23.99
2018-09-04T09:31:51.256Z,23.89
2018-09-04T09:34:19.589Z,23.71
2018-09-04T09:36:48.108Z,23.73
2018-09-04T09:39:16.289Z,23.79
2018-09-04T09:41:44.653Z,23.42
2018-09-04T09:44:13.045Z,23.40
2018-09-04T09:46:41.382Z,23.63
2018-09-04T09:49:09.760Z,23.65
2018-09-04T09:51:38.120Z,23.60
2018-09-04T09:54:06.514Z,23.58
2018-09-04T09:56:34.831Z,23.35
2018-09-04T09:59:03.201Z,23.50
2018-09-04T10:01:36.614Z,22.94
2018-09-04T10:04:06.703Z,23.32
2018-09-04T10:06:34.893Z,23.19
2018-09-04T10:09:03.862Z,23.47
2018-09-04T10:11:32.369Z,23.47
2018-09-04T10:14:00.783Z,23.46
2018-09-04T10:16:29.205Z,23.74
2018-09-04T10:18:57.520Z,23.65
2018-09-04T10:21:25.927Z,23.41
2018-09-04T10:23:54.193Z,23.80
2018-09-04T10:26:22.573Z,23.75
2018-09-04T10:28:50.910Z,24.05
2018-09-04T10:31:19.252Z,23.59
2018-09-04T10:33:47.595Z,23.20
2018-09-04T10:36:16.001Z,23.60
2018-09-04T10:38:44.268Z,23.93
2018-09-04T10:41:13.719Z,23.80
2018-09-04T10:43:42.185Z,23.95
2018-09-04T10:46:15.059Z,23.91
2018-09-04T10:48:43.822Z,23.95
2018-09-04T10:51:12.302Z,24.22
2018-09-04T10:53:40.623Z,23.84
2018-09-04T10:56:09.236Z,23.87
2018-09-04T10:58:37.556Z,23.88
2018-09-04T11:01:05.993Z,24.12
2018-09-04T11:03:34.324Z,24.19
2018-09-04T11:06:02.722Z,24.25
2018-09-04T11:08:31.063Z,24.05
2018-09-04T11:10:59.831Z,23.94
2018-09-04T11:13:28.175Z,23.81
2018-09-04T11:15:56.739Z,23.65
2018-09-04T11:18:25.407Z,23.47
2018-09-04T11:20:53.780Z,23.39
2018-09-04T11:23:23.448Z,23.48
2018-09-04T11:25:51.956Z,23.18
2018-09-04T11:28:20.352Z,23.26
2018-09-04T11:30:48.856Z,23.21
2018-09-04T11:33:17.196Z,23.14
2018-09-04T11:35:45.555Z,23.20
2018-09-04T11:38:13.896Z,23.15
2018-09-04T11:40:42.316Z,23.19
2018-09-04T11:43:10.615Z,23.28
2018-09-04T11:45:38.941Z,23.36
2018-09-04T11:48:07.279Z,23.36
2018-09-04T11:50:35.615Z,23.34
2018-09-04T11:53:03.915Z,23.49
2018-09-04T11:55:32.312Z,23.60
2018-09-04T11:58:00.642Z,23.88
2018-09-04T12:00:38.743Z,23.92
2018-09-04T12:03:07.966Z,24.03
2018-09-04T12:05:36.287Z,24.11
2018-09-04T12:08:04.597Z,24.32
2018-09-04T12:10:32.920Z,24.54
2018-09-04T12:13:01.529Z,24.55
2018-09-04T12:15:29.872Z,24.53
2018-09-04T12:17:58.327Z,24.74
2018-09-04T12:20:33.008Z,24.46
2018-09-04T12:23:01.313Z,24.55
2018-09-04T12:25:29.659Z,24.02
2018-09-04T12:27:57.978Z,24.25
2018-09-04T12:30:26.264Z,24.22
2018-09-04T12:32:54.886Z,24.57
2018-09-04T12:35:23.188Z,24.55
2018-09-04T12:37:51.489Z,24.47
2018-09-04T12:40:19.796Z,24.74
2018-09-04T12:42:48.156Z,24.92
2018-09-04T12:45:16.464Z,25.20
2018-09-04T12:47:44.752Z,24.60
2018-09-04T12:50:13.056Z,24.68
2018-09-04T12:52:41.655Z,24.78
2018-09-04T12:55:09.990Z,24.88
2018-09-04T12:57:38.297Z,25.13
2018-09-04T13:00:07.126Z,24.90
2018-09-04T13:02:35.467Z,24.94
2018-09-04T13:05:03.808Z,24.93
2018-09-04T13:07:32.088Z,24.54
2018-09-04T13:10:00.391Z,24.83
2018-09-04T13:12:28.701Z,24.67
2018-09-04T13:14:57.317Z,24.72
2018-09-04T13:17:25.780Z,24.80
2018-09-04T13:19:54.109Z,24.83
2018-09-04T13:22:22.459Z,24.57
2018-09-04T13:24:50.802Z,24.80
2018-09-04T13:27:19.127Z,25.01
2018-09-04T13:29:47.498Z,25.14
2018-09-04T13:32:15.779Z,25.23
2018-09-04T13:34:44.213Z,25.50
2018-09-04T13:37:12.851Z,25.55
2018-09-04T13:39:41.685Z,25.25
2018-09-04T13:42:10.072Z,24.87
2018-09-04T13:44:38.381Z,24.99
2018-09-04T13:47:06.684Z,25.17
2018-09-04T13:49:35.125Z,25.27
2018-09-04T13:52:03.412Z,25.36
2018-09-04T13:54:31.937Z,25.08
2018-09-04T13:57:00.886Z,24.99
2018-09-04T13:59:29.365Z,25.02
2018-09-04T14:01:58.190Z,25.15
2018-09-04T14:04:26.692Z,25.21
2018-09-04T14:06:55.129Z,25.21
2018-09-04T14:09:23.571Z,25.27
2018-09-04T14:11:52.267Z,25.14
2018-09-04T14:14:21.368Z,25.22
2018-09-04T14:16:49.867Z,25.50
2018-09-04T14:19:18.363Z,25.37
2018-09-04T14:21:47.004Z,25.49
2018-09-04T14:24:15.427Z,25.54
2018-09-04T14:26:43.994Z,25.50
2018-09-04T14:29:53.155Z,25.58
2018-09-04T14:31:41.044Z,25.63
2018-09-04T14:34:09.450Z,25.73
2018-09-04T14:36:38.635Z,25.65
2018-09-04T14:39:07.308Z,25.65
2018-09-04T14:41:36.037Z,25.77
2018-09-04T14:44:04.694Z,25.81
2018-09-04T14:46:33.440Z,25.85
2018-09-04T14:49:01.856Z,25.82
2018-09-04T14:51:30.462Z,25.95
2018-09-04T14:53:59.093Z,26.01
2018-09-04T14:56:27.488Z,26.03
2018-09-04T14:58:56.352Z,26.03
2018-09-04T15:01:24.796Z,25.89
2018-09-04T15:03:53.167Z,25.89
2018-09-04T15:06:21.554Z,25.76
2018-09-04T15:08:49.968Z,25.80
2018-09-04T15:11:18.332Z,25.71
2018-09-04T15:13:46.916Z,25.75
2018-09-04T15:16:15.405Z,25.73
2018-09-04T15:18:44.134Z,25.72
2018-09-04T15:21:12.832Z,25.81
2018-09-04T15:23:41.937Z,25.78
2018-09-04T15:26:10.544Z,25.70
2018-09-04T15:28:39.036Z,25.74
2018-09-04T15:31:07.505Z,25.69
2018-09-04T15:33:36.262Z,25.70
2018-09-04T15:36:05.093Z,25.61
2018-09-04T15:38:33.796Z,25.73
2018-09-04T15:41:02.660Z,25.70
2018-09-04T15:43:31.163Z,25.66
2018-09-04T15:45:59.733Z,25.56
2018-09-04T15:48:28.613Z,25.61
2018-09-04T15:50:57.044Z,25.68
2018-09-04T15:53:25.870Z,25.67
2018-09-04T15:55:54.585Z,25.63
2018-09-04T15:58:23.304Z,25.65
2018-09-04T16:00:52.287Z,25.65
2018-09-04T16:03:20.819Z,25.61
2018-09-04T16:05:49.573Z,25.61
2018-09-04T16:08:18.037Z,25.56
2018-09-04T16:10:46.516Z,25.56
2018-09-04T16:13:15.385Z,25.65
2018-09-04T16:15:43.840Z,25.61
2018-09-04T16:18:12.548Z,25.60
2018-09-04T16:20:41.351Z,25.61
2018-09-04T16:23:10.367Z,25.59
2018-09-04T16:25:38.956Z,25.50
2018-09-04T16:28:07.420Z,25.57
2018-09-04T16:30:36.372Z,25.47
2018-09-04T16:33:05.420Z,25.42
2018-09-04T16:35:34.582Z,25.38
2018-09-04T16:38:03.387Z,25.35
2018-09-04T16:40:32.189Z,25.30
2018-09-04T16:43:00.626Z,25.29
2018-09-04T16:45:29.910Z,25.29
2018-09-04T16:47:58.959Z,25.21
2018-09-04T16:50:27.796Z,25.18
2018-09-04T16:52:56.656Z,25.16
2018-09-04T16:55:26.081Z,25.11
2018-09-04T16:57:54.850Z,25.08
2018-09-04T17:00:23.445Z,25.02
2018-09-04T17:02:52.130Z,24.97
2018-09-04T17:05:21.135Z,25.04
2018-09-04T17:07:49.707Z,24.95
2018-09-04T17:10:18.408Z,24.90
2018-09-04T17:12:46.977Z,24.87
2018-09-04T17:15:15.476Z,24.80
2018-09-04T17:17:43.917Z,24.66
2018-09-04T17:20:14.608Z,24.64
2018-09-04T17:22:43.060Z,24.56
2018-09-04T17:25:11.752Z,24.52
2018-09-04T17:27:40.391Z,24.45
2018-09-04T17:30:09.824Z,24.39
2018-09-04T17:32:38.616Z,24.34
2018-09-04T17:35:07.623Z,24.30
2018-09-04T17:37:36.388Z,24.23
2018-09-04T17:40:05.175Z,24.17
2018-09-04T17:42:34.070Z,24.15
2018-09-04T17:45:02.893Z,24.07
2018-09-04T17:47:31.647Z,24.00
2018-09-04T17:50:01.438Z,23.93
2018-09-04T17:52:30.072Z,23.87
2018-09-04T17:54:59.038Z,23.78
2018-09-04T17:57:28.035Z,23.74
2018-09-04T17:59:56.903Z,23.67
2018-09-04T18:02:25.840Z,23.57
2018-09-04T18:04:54.660Z,23.54
2018-09-04T18:07:23.870Z,23.47
2018-09-04T18:09:52.483Z,23.47
2018-09-04T18:12:20.999Z,23.39
2018-09-04T18:14:50.024Z,23.37
2018-09-04T18:17:19.252Z,23.32
2018-09-04T18:19:48.538Z,23.21
2018-09-04T18:22:17.327Z,23.15
2018-09-04T18:24:46.037Z,23.09
2018-09-04T18:27:14.958Z,23.06
2018-09-04T18:29:44.328Z,22.96
2018-09-04T18:32:13.092Z,22.84
2018-09-04T18:34:41.767Z,22.69
2018-09-04T18:37:10.706Z,22.65
2018-09-04T18:39:39.241Z,22.64
2018-09-04T18:42:07.979Z,22.57
2018-09-04T18:44:37.315Z,22.49
2018-09-04T18:47:07.341Z,22.42
2018-09-04T18:49:36.145Z,22.36
2018-09-04T18:52:05.039Z,22.31
2018-09-04T18:54:34.060Z,22.08
2018-09-04T18:57:03.203Z,22.02
2018-09-04T18:59:32.313Z,22.06
2018-09-04T19:02:01.094Z,21.83
2018-09-04T19:04:29.939Z,21.87
2018-09-04T19:06:58.493Z,21.63
2018-09-04T19:09:27.559Z,21.42
2018-09-04T19:11:56.463Z,21.38
2018-09-04T19:14:25.042Z,21.39
2018-09-04T19:16:53.927Z,21.32
2018-09-04T19:19:22.340Z,21.35
2018-09-04T19:21:50.975Z,21.41
2018-09-04T19:24:19.664Z,21.35
2018-09-04T19:26:48.341Z,21.27
2018-09-04T19:29:16.804Z,21.16
2018-09-04T19:31:45.374Z,21.17
2018-09-04T19:34:13.939Z,21.20
2018-09-04T19:36:42.344Z,21.18
2018-09-04T19:39:11.529Z,21.15
2018-09-04T19:41:40.043Z,21.13
2018-09-04T19:44:08.523Z,21.12
2018-09-04T19:46:36.897Z,21.11
2018-09-04T19:49:05.579Z,21.13
2018-09-04T19:51:34.143Z,21.12
2018-09-04T19:54:02.697Z,21.12
2018-09-04T19:56:31.146Z,21.13
2018-09-04T19:58:59.894Z,21.05
2018-09-04T20:01:28.340Z,21.00
2018-09-04T20:03:57.199Z,21.01
2018-09-04T20:06:25.825Z,20.92
2018-09-04T20:08:54.483Z,20.81
2018-09-04T20:11:23.111Z,20.80
2018-09-04T20:13:52.348Z,20.74
2018-09-04T20:16:21.397Z,20.68
2018-09-04T20:18:49.894Z,20.58
2018-09-04T20:21:18.295Z,20.49
2018-09-04T20:23:47.308Z,20.38
2018-09-04T20:26:16.192Z,20.28
2018-09-04T20:28:45.035Z,20.22
2018-09-04T20:31:14.530Z,20.16
2018-09-04T20:33:43.218Z,20.08
2018-09-04T20:36:11.909Z,20.00
2018-09-04T20:38:40.505Z,19.94
2018-09-04T20:41:09.103Z,19.93
2018-09-04T20:43:37.701Z,19.81
2018-09-04T20:46:06.466Z,19.85
2018-09-04T20:48:35.354Z,19.66
2018-09-04T20:51:04.033Z,19.56
2018-09-04T20:53:32.711Z,19.50
2018-09-04T20:56:01.193Z,19.43
2018-09-04T20:58:40.668Z,19.38
2018-09-04T21:01:20.358Z,19.26
2018-09-04T21:04:00.010Z,19.21
2018-09-04T21:06:39.876Z,19.14
2018-09-04T21:09:39.606Z,19.14
2018-09-04T21:12:08.751Z,19.14
2018-09-04T21:14:38.088Z,19.07
2018-09-04T21:17:06.962Z,19.03
2018-09-04T21:19:35.652Z,18.95
2018-09-04T21:22:05.371Z,18.95
2018-09-04T21:24:33.893Z,18.93
2018-09-04T21:27:02.368Z,18.90
2018-09-04T21:29:30.892Z,18.87
2018-09-04T21:31:59.479Z,18.83
2018-09-04T21:34:28.363Z,18.77
2018-09-04T21:36:56.881Z,18.72
2018-09-04T21:39:25.299Z,18.67
2018-09-04T21:41:53.694Z,18.59
2018-09-04T21:44:22.100Z,18.53
2018-09-04T21:46:50.542Z,18.48
2018-09-04T21:49:19.056Z,18.43
2018-09-04T21:51:47.600Z,18.33
2018-09-04T21:54:16.297Z,18.32
2018-09-04T21:56:44.767Z,18.27
2018-09-04T21:59:13.218Z,18.30
2018-09-04T22:01:41.654Z,18.30
2018-09-04T22:04:10.244Z,18.27
2018-09-04T22:06:38.740Z,18.24
2018-09-04T22:09:07.995Z,18.17
2018-09-04T22:11:36.601Z,18.10
2018-09-04T22:14:06.020Z,18.12
2018-09-04T22:16:34.924Z,18.08
2018-09-04T22:19:03.802Z,18.13
2018-09-04T22:21:32.564Z,18.20
2018-09-04T22:24:01.319Z,18.19
2018-09-04T22:26:29.968Z,18.17
2018-09-04T22:28:58.819Z,18.13
2018-09-04T22:31:27.619Z,18.09
2018-09-04T22:33:56.189Z,18.06
2018-09-04T22:36:24.768Z,18.02
2018-09-04T22:38:53.294Z,17.97
2018-09-04T22:41:21.800Z,17.97
2018-09-04T22:43:50.352Z,18.08
2018-09-04T22:46:19.226Z,17.96
2018-09-04T22:48:47.923Z,17.89
2018-09-04T22:51:22.031Z,17.86
2018-09-04T22:53:50.596Z,17.77
2018-09-04T22:56:19.056Z,17.85
2018-09-04T22:58:47.512Z,17.88
2018-09-04T23:01:16.141Z,17.86
2018-09-04T23:03:45.566Z,17.80
2018-09-04T23:06:14.122Z,17.84
2018-09-04T23:08:42.860Z,17.72
2018-09-04T23:11:11.545Z,17.71
2018-09-04T23:13:40.384Z,17.58
2018-09-04T23:16:09.048Z,17.54
2018-09-04T23:18:37.752Z,17.52
2018-09-04T23:21:06.239Z,17.50
2018-09-04T23:23:34.787Z,17.48
2018-09-04T23:26:03.210Z,17.49
2018-09-04T23:28:32.180Z,17.52
2018-09-04T23:31:01.283Z,17.59
2018-09-04T23:33:30.797Z,17.58
2018-09-04T23:35:59.343Z,17.55
2018-09-04T23:38:27.927Z,17.57
2018-09-04T23:40:56.830Z,17.52
2018-09-04T23:43:25.508Z,17.48
2018-09-04T23:45:54.247Z,17.47
2018-09-04T23:48:22.707Z,17.48
2018-09-04T23:50:51.259Z,17.46
2018-09-04T23:53:19.738Z,17.43
2018-09-04T23:55:48.573Z,17.41
2018-09-04T23:58:17.256Z,17.41
